アナディリ の空港の天気 - METARとTAF

アナディリ・ウゴルヌイ空港 ( UHMA / DYR ) - ロシア アナディリ
飛行場実況気象(Metar)
観測時間09/25 12:30 MAGT (09/25 01:30 UTC)
風向・風速北 2m/s
視程10km以上
天気現象
少しの雲 雲底高度 1010m
全天の4割程度の雲 雲底高度 6100m
気温10℃
湿度58%
気圧1009hPa
METARUHMA 250130Z 36002MPS 9999 FEW033 SCT200 10/02 Q1009 R88/60D NOSIG RMK END R01/34002MPS QFE753/1004
過去の天気等 Google飛行場航空写真 Wunderground天気予報

過去48時間のMETAR

飛行場予報(TAF)
発表時間: 9/25 10:00 MAGT (9/24 23:00 UTC)
予報対象時間: 25日11時 MAGT ~ 26日11時 MAGT
風向・風速南南東 5m/s
視程10km以上
全天の4割程度の雲 雲底高度 300m
全天の4割程度の雲 雲底高度 910m
25日11時 MAGT ~ 25日23時 MAGT に一時的に
風向・風速北 3m/s
視程4000m
天気現象弱いしゅう雨 もや
全天の4割程度の雲 雲底高度 180m
全天の8割程度の積乱雲 雲底高度 700m
25日23時 MAGT ~ 26日5時 MAGT に一時的に
風向・風速不定 1m/s
視程1000m
天気現象しゅう雨 もや
全天の8割程度の雲 雲底高度 150m
全天の8割程度の積乱雲 雲底高度 700m
26日5時 MAGT ~ 26日11時 MAGT に一時的に
風向・風速東南東 7m/s
天気現象弱いしゅう雨
全天の4割程度の雲 雲底高度 180m
全天の8割程度の積乱雲 雲底高度 760m
TAF UHMA 242300Z 2500/2524 16005MPS 9999 SCT010 SCT030
TEMPO 2500/2512 36003MPS 4000 -SHRA BR SCT006 BKN023CB
TEMPO 2512/2518 VRB01MPS 1000 SHRA BR BKN005 BKN023CB
TEMPO 2518/2524 12007MPS -SHRA SCT006 BKN025CB